Terminal Aerodrome Forecast
Issued by NWS

Home | Current Version | Previous Version | Text Only | Print | Product List | Glossary Off
Versions: 1 2 3 4 5 6 7 8 9 10 11 12 13 14 15 16 17 18 19

000
FTUS43 KICT 282330
TAFSLN
TAF
KSLN 282330Z 2900/2924 18011KT P6SM VCTS BKN080CB
      TEMPO 2900/2902 VRB15G30KT -TSRA
     FM290200 36011KT P6SM VCTS BKN080CB
     FM290900 05011KT P6SM VCSH BKN080=

USA.gov is the U.S. government's official web portal to all federal, state and local government web resources and services.